createdAt,value
2019-04-29T00:00:35.635Z,100896.53
2019-04-29T00:01:41.564Z,100902.35
2019-04-29T00:02:45.736Z,100904.00
2019-04-29T00:03:49.999Z,100906.18
2019-04-29T00:04:54.178Z,100905.64
2019-04-29T00:05:58.491Z,100910.72
2019-04-29T00:07:02.855Z,100902.56
2019-04-29T00:08:07.094Z,100908.13
2019-04-29T00:09:15.535Z,100909.98
2019-04-29T00:10:20.748Z,100906.91
2019-04-29T00:11:25.182Z,100910.53
2019-04-29T00:12:29.943Z,100911.08
2019-04-29T00:13:34.212Z,100916.65
2019-04-29T00:14:40.220Z,100911.03
2019-04-29T00:15:49.195Z,100911.58
2019-04-29T00:16:55.118Z,100910.19
2019-04-29T00:18:00.920Z,100909.34
2019-04-29T00:19:18.286Z,100916.84
2019-04-29T00:20:35.620Z,100910.64
2019-04-29T00:21:40.677Z,100912.99
2019-04-29T00:22:44.855Z,100912.99
2019-04-29T00:23:57.186Z,100916.33
2019-04-29T00:24:55.201Z,100918.26
2019-04-29T00:25:59.448Z,100923.23
2019-04-29T00:27:04.056Z,100920.14
2019-04-29T00:28:08.368Z,100924.02
2019-04-29T00:29:12.610Z,100918.16
2019-04-29T00:30:18.758Z,100916.46
2019-04-29T00:31:23.030Z,100921.73
2019-04-29T00:32:27.279Z,100915.86
2019-04-29T00:33:31.481Z,100912.20
2019-04-29T00:34:35.707Z,100908.57
2019-04-29T00:35:40.005Z,100912.39
2019-04-29T00:36:48.771Z,100907.91
2019-04-29T00:38:03.764Z,100913.73
2019-04-29T00:39:25.790Z,100911.13
2019-04-29T00:40:37.372Z,100908.51
2019-04-29T00:41:46.634Z,100905.61
2019-04-29T00:42:57.881Z,100903.62
2019-04-29T00:44:04.017Z,100906.89
2019-04-29T00:45:08.179Z,100904.95
2019-04-29T00:46:12.796Z,100900.45
2019-04-29T00:47:17.234Z,100902.33
2019-04-29T00:48:21.446Z,100902.58
2019-04-29T00:49:25.702Z,100906.20
2019-04-29T00:50:29.876Z,100905.91
2019-04-29T00:51:34.189Z,100903.12
2019-04-29T00:52:38.461Z,100906.75
2019-04-29T00:53:42.937Z,100905.95
2019-04-29T00:55:06.891Z,100908.69
2019-04-29T00:56:11.131Z,100905.91
2019-04-29T00:57:15.307Z,100903.36
2019-04-29T00:58:19.516Z,100906.14
2019-04-29T00:59:23.713Z,100901.37
2019-04-29T01:00:32.514Z,100902.25
2019-04-29T01:01:36.766Z,100904.19
2019-04-29T01:02:40.947Z,100904.98
2019-04-29T01:03:45.184Z,100902.20
2019-04-29T01:04:49.456Z,100899.36
2019-04-29T01:05:53.621Z,100902.69
2019-04-29T01:06:58.883Z,100896.88
2019-04-29T01:08:03.061Z,100901.66
2019-04-29T01:09:08.902Z,100901.66
2019-04-29T01:10:13.524Z,100902.50
2019-04-29T01:11:18.808Z,100903.89
2019-04-29T01:12:22.950Z,100903.89
2019-04-29T01:13:27.185Z,100906.37
2019-04-29T01:14:31.514Z,100904.73
2019-04-29T01:15:35.770Z,100910.59
2019-04-29T01:16:40.108Z,100910.05
2019-04-29T01:17:44.279Z,100903.09
2019-04-29T01:18:48.644Z,100908.97
2019-04-29T01:19:52.858Z,100910.11
2019-04-29T01:20:57.167Z,100907.33
2019-04-29T01:22:01.429Z,100905.70
2019-04-29T01:23:05.708Z,100911.59
2019-04-29T01:24:11.024Z,100912.14
2019-04-29T01:25:15.206Z,100907.42
2019-04-29T01:26:37.431Z,100904.64
2019-04-29T01:27:43.394Z,100907.42
2019-04-29T01:28:53.377Z,100904.30
2019-04-29T01:29:57.691Z,100917.06
2019-04-29T01:31:05.539Z,100911.75
2019-04-29T01:32:09.764Z,100908.66
2019-04-29T01:33:13.934Z,100906.97
2019-04-29T01:34:22.756Z,100910.84
2019-04-29T01:35:26.950Z,100910.84
2019-04-29T01:36:32.766Z,100910.23
2019-04-29T01:37:41.386Z,100916.34
2019-04-29T01:38:48.671Z,100909.94
2019-04-29T01:39:56.406Z,100913.81
2019-04-29T01:41:08.828Z,100919.06
2019-04-29T01:42:26.498Z,100919.06
2019-04-29T01:43:32.366Z,100913.50
2019-04-29T01:44:37.039Z,100915.98
2019-04-29T01:45:41.226Z,100910.58
2019-04-29T01:46:45.381Z,100915.59
2019-04-29T01:47:49.630Z,100920.30
2019-04-29T01:48:53.847Z,100917.22
2019-04-29T01:49:58.183Z,100923.09
2019-04-29T01:51:02.456Z,100913.59
2019-04-29T01:52:06.658Z,100921.70
2019-04-29T01:53:10.895Z,100927.13
2019-04-29T01:54:15.084Z,100925.45
2019-04-29T01:55:20.888Z,100921.42
2019-04-29T01:56:26.130Z,100914.65
2019-04-29T01:57:30.369Z,100918.43
2019-04-29T01:58:34.931Z,100918.73
2019-04-29T01:59:39.162Z,100919.58
2019-04-29T02:00:43.557Z,100917.10
2019-04-29T02:01:47.729Z,100917.95
2019-04-29T02:02:51.898Z,100919.94
2019-04-29T02:03:56.096Z,100920.79
2019-04-29T02:05:00.263Z,100922.48
2019-04-29T02:06:05.145Z,100914.69
2019-04-29T02:07:09.309Z,100914.69
2019-04-29T02:08:13.477Z,100918.67
2019-04-29T02:09:19.285Z,100917.83
2019-04-29T02:10:30.816Z,100914.20
2019-04-29T02:11:35.086Z,100920.91
2019-04-29T02:12:39.272Z,100917.04
2019-04-29T02:13:43.438Z,100912.75
2019-04-29T02:14:47.671Z,100916.55
2019-04-29T02:15:52.814Z,100919.88
2019-04-29T02:16:57.043Z,100914.38
2019-04-29T02:18:01.270Z,100917.47
2019-04-29T02:19:06.507Z,100921.39
2019-04-29T02:20:10.748Z,100923.09
2019-04-29T02:21:14.943Z,100921.16
2019-04-29T02:22:20.767Z,100913.05
2019-04-29T02:23:38.864Z,100914.44
2019-04-29T02:24:44.801Z,100918.37
2019-04-29T02:25:50.448Z,100918.61
2019-04-29T02:26:54.838Z,100909.13
2019-04-29T02:27:58.970Z,100913.84
2019-04-29T02:29:03.331Z,100912.45
2019-04-29T02:30:07.768Z,100912.69
2019-04-29T02:31:30.162Z,100915.11
2019-04-29T02:32:34.505Z,100911.99
2019-04-29T02:33:38.680Z,100912.53
2019-04-29T02:34:42.858Z,100914.47
2019-04-29T02:35:47.059Z,100916.70
2019-04-29T02:36:51.203Z,100913.08
2019-04-29T02:37:55.938Z,100915.55
2019-04-29T02:39:11.017Z,100915.55
2019-04-29T02:40:16.895Z,100924.74
2019-04-29T02:41:25.504Z,100916.95
2019-04-29T02:42:40.300Z,100911.39
2019-04-29T02:43:46.185Z,100918.88
2019-04-29T02:44:50.905Z,100916.95
2019-04-29T02:45:55.192Z,100919.97
2019-04-29T02:46:59.362Z,100916.64
2019-04-29T02:48:04.165Z,100921.91
2019-04-29T02:49:08.353Z,100916.04
2019-04-29T02:50:12.514Z,100924.14
2019-04-29T02:51:18.462Z,100927.47
2019-04-29T02:52:22.630Z,100919.67
2019-04-29T02:53:26.878Z,100922.99
2019-04-29T02:54:31.112Z,100915.44
2019-04-29T02:55:37.153Z,100917.38
2019-04-29T02:56:43.137Z,100926.86
2019-04-29T02:57:58.015Z,100918.52
2019-04-29T02:59:03.824Z,100920.21
2019-04-29T03:00:26.368Z,100919.00
2019-04-29T03:01:44.315Z,100919.78
2019-04-29T03:02:50.201Z,100920.88
2019-04-29T03:03:56.297Z,100922.47
2019-04-29T03:05:10.925Z,100921.86
2019-04-29T03:06:15.133Z,100921.02
2019-04-29T03:07:19.488Z,100920.71
2019-04-29T03:08:24.746Z,100921.26
2019-04-29T03:09:30.677Z,100924.82
2019-04-29T03:10:34.948Z,100921.98
2019-04-29T03:11:39.118Z,100918.59
2019-04-29T03:12:43.984Z,100924.59
2019-04-29T03:13:48.505Z,100929.31
2019-04-29T03:14:52.725Z,100921.21
2019-04-29T03:15:57.998Z,100925.86
2019-04-29T03:17:02.814Z,100925.39
2019-04-29T03:18:07.710Z,100926.17
2019-04-29T03:19:19.365Z,100918.63
2019-04-29T03:20:25.229Z,100923.64
2019-04-29T03:21:33.952Z,100926.34
2019-04-29T03:22:42.719Z,100925.20
2019-04-29T03:23:46.970Z,100921.87
2019-04-29T03:24:51.209Z,100923.27
2019-04-29T03:25:55.516Z,100926.05
2019-04-29T03:26:59.811Z,100920.79
2019-04-29T03:28:04.818Z,100936.08
2019-04-29T03:29:10.687Z,100926.59
2019-04-29T03:30:14.859Z,100926.34
2019-04-29T03:31:19.228Z,100924.28
2019-04-29T03:32:23.441Z,100930.38
2019-04-29T03:33:27.739Z,100927.91
2019-04-29T03:34:31.997Z,100921.50
2019-04-29T03:35:36.326Z,100927.60
2019-04-29T03:36:40.654Z,100927.27
2019-04-29T03:37:44.978Z,100931.06
2019-04-29T03:38:50.812Z,100943.33
2019-04-29T03:39:55.008Z,100935.53
2019-04-29T03:40:59.141Z,100941.16
2019-04-29T03:42:07.006Z,100936.41
2019-04-29T03:43:09.284Z,100932.63
2019-04-29T03:44:13.488Z,100934.63
2019-04-29T03:45:17.656Z,100935.23
2019-04-29T03:46:21.917Z,100935.53
2019-04-29T03:47:26.097Z,100938.08
2019-04-29T03:48:30.265Z,100933.30
2019-04-29T03:49:34.944Z,100936.48
2019-04-29T03:50:39.153Z,100930.38
2019-04-29T03:51:43.626Z,100931.77
2019-04-29T03:52:47.847Z,100923.44
2019-04-29T03:53:51.972Z,100927.36
2019-04-29T03:54:56.241Z,100925.44
2019-04-29T03:56:00.401Z,100927.12
2019-04-29T03:57:05.986Z,100921.57
2019-04-29T03:58:10.189Z,100935.77
2019-04-29T03:59:14.366Z,100918.55
2019-04-29T04:00:18.703Z,100932.20
2019-04-29T04:01:24.528Z,100918.02
2019-04-29T04:02:36.260Z,100928.04
2019-04-29T04:03:45.002Z,100925.87
2019-04-29T04:05:06.866Z,100924.66
2019-04-29T04:06:12.698Z,100923.03
2019-04-29T04:07:27.682Z,100924.66
2019-04-29T04:08:40.482Z,100926.59
2019-04-29T04:09:44.655Z,100924.05
2019-04-29T04:10:49.134Z,100934.31
2019-04-29T04:11:53.790Z,100928.21
2019-04-29T04:12:57.984Z,100926.28
2019-04-29T04:14:02.249Z,100927.91
2019-04-29T04:15:08.050Z,100928.21
2019-04-29T04:16:13.873Z,100924.34
2019-04-29T04:17:22.465Z,100932.45
2019-04-29T04:18:28.005Z,100929.43
2019-04-29T04:19:33.455Z,100936.68
2019-04-29T04:20:37.650Z,100939.77
2019-04-29T04:21:41.969Z,100932.27
2019-04-29T04:22:47.322Z,100937.83
2019-04-29T04:23:51.494Z,100938.98
2019-04-29T04:24:55.695Z,100942.61
2019-04-29T04:25:59.866Z,100943.45
2019-04-29T04:27:04.663Z,100948.81
2019-04-29T04:28:08.879Z,100946.88
2019-04-29T04:29:13.120Z,100951.34
2019-04-29T04:30:17.697Z,100944.94
2019-04-29T04:31:22.828Z,100954.67
2019-04-29T04:32:27.067Z,100947.18
2019-04-29T04:33:31.699Z,100960.46
2019-04-29T04:34:36.035Z,100954.03
2019-04-29T04:35:40.354Z,100959.37
2019-04-29T04:36:44.522Z,100964.23
2019-04-29T04:37:48.726Z,100959.45
2019-04-29T04:38:53.023Z,100960.30
2019-04-29T04:39:58.269Z,100959.76
2019-04-29T04:41:06.829Z,100962.30
2019-04-29T04:42:11.057Z,100958.44
2019-04-29T04:43:15.264Z,100961.85
2019-04-29T04:44:19.586Z,100958.84
2019-04-29T04:45:23.765Z,100959.45
2019-04-29T04:46:27.932Z,100966.16
2019-04-29T04:47:32.297Z,100959.81
2019-04-29T04:48:36.528Z,100966.53
2019-04-29T04:49:40.789Z,100960.73
2019-04-29T04:50:44.954Z,100963.60
2019-04-29T04:51:49.278Z,100962.83
2019-04-29T04:52:53.446Z,100958.11
2019-04-29T04:53:57.731Z,100969.84
2019-04-29T04:55:02.103Z,100969.84
2019-04-29T04:56:06.267Z,100967.36
2019-04-29T04:57:10.448Z,100960.17
2019-04-29T04:58:14.621Z,100967.67
2019-04-29T04:59:18.789Z,100972.45
2019-04-29T05:00:25.763Z,100965.86
2019-04-29T05:01:29.925Z,100970.67
2019-04-29T05:02:34.303Z,100975.99
2019-04-29T05:03:38.476Z,100964.81
2019-04-29T05:04:42.848Z,100978.59
2019-04-29T05:05:47.149Z,100981.68
2019-04-29T05:06:51.330Z,100983.07
2019-04-29T05:07:55.773Z,100975.87
2019-04-29T05:08:59.953Z,100991.17
2019-04-29T05:10:05.670Z,100987.06
2019-04-29T05:11:10.047Z,100984.62
2019-04-29T05:12:14.343Z,100985.53
2019-04-29T05:13:27.806Z,100982.52
2019-04-29T05:14:26.495Z,100983.66
2019-04-29T05:15:30.741Z,100981.97
2019-04-29T05:16:35.038Z,100986.14
2019-04-29T05:17:39.203Z,100989.22
2019-04-29T05:18:43.443Z,100983.11
2019-04-29T05:19:47.681Z,100987.35
2019-04-29T05:20:53.017Z,100994.06
2019-04-29T05:21:58.242Z,100987.95
2019-04-29T05:23:02.415Z,100991.92
2019-04-29T05:24:06.619Z,100995.85
2019-04-29T05:25:10.873Z,100998.70
2019-04-29T05:26:15.116Z,100999.84
2019-04-29T05:27:20.277Z,101001.54
2019-04-29T05:28:24.438Z,100995.98
2019-04-29T05:29:28.916Z,101006.37
2019-04-29T05:30:33.718Z,100998.03
2019-04-29T05:31:38.712Z,101002.84
2019-04-29T05:32:44.311Z,100999.82
2019-04-29T05:33:51.690Z,101002.66
2019-04-29T05:34:57.504Z,101001.03
2019-04-29T05:37:45.685Z,101001.40
2019-04-29T05:38:52.100Z,100995.28
2019-04-29T05:39:56.271Z,101005.03
2019-04-29T05:41:00.434Z,100999.16
2019-04-29T05:42:07.740Z,101004.72
2019-04-29T05:43:14.980Z,101004.27
2019-04-29T05:44:20.978Z,101001.48
2019-04-29T05:45:35.811Z,101003.19
2019-04-29T05:46:53.680Z,101003.79
2019-04-29T05:48:05.395Z,101001.03
2019-04-29T05:49:11.787Z,101008.41
2019-04-29T05:50:23.538Z,101009.86
2019-04-29T05:51:29.515Z,101007.69
2019-04-29T05:52:39.375Z,101016.03
2019-04-29T05:53:57.846Z,101016.64
2019-04-29T05:55:02.302Z,101017.55
2019-04-29T05:56:06.498Z,101020.09
2019-04-29T05:57:10.775Z,101028.83
2019-04-29T05:58:14.945Z,101025.02
2019-04-29T05:59:19.516Z,101021.45
2019-04-29T06:00:24.292Z,101021.81
2019-04-29T06:01:29.946Z,101018.03
2019-04-29T06:02:38.568Z,101025.35
2019-04-29T06:03:40.275Z,101020.14
2019-04-29T06:04:48.079Z,101020.54
2019-04-29T06:05:50.694Z,101019.75
2019-04-29T06:06:54.946Z,101025.44
2019-04-29T06:08:01.034Z,101023.86
2019-04-29T06:09:11.590Z,101023.70
2019-04-29T06:10:13.826Z,101020.77
2019-04-29T06:11:18.328Z,101023.60
2019-04-29T06:12:22.482Z,101027.33
2019-04-29T06:13:26.731Z,101021.56
2019-04-29T06:14:30.979Z,101030.58
2019-04-29T06:15:35.323Z,101025.61
2019-04-29T06:16:39.571Z,101023.45
2019-04-29T06:17:44.839Z,101031.38
2019-04-29T06:18:49.692Z,101028.94
2019-04-29T06:19:53.904Z,101031.57
2019-04-29T06:21:08.851Z,101028.28
2019-04-29T06:22:04.369Z,101034.52
2019-04-29T06:23:08.556Z,101035.66
2019-04-29T06:24:12.919Z,101036.34
2019-04-29T06:25:17.159Z,101035.61
2019-04-29T06:26:21.335Z,101035.11
2019-04-29T06:27:25.552Z,101031.86
2019-04-29T06:28:29.729Z,101035.84
2019-04-29T06:29:34.064Z,101036.14
2019-04-29T06:30:40.614Z,101040.13
2019-04-29T06:31:44.485Z,101040.50
2019-04-29T06:32:48.713Z,101031.34
2019-04-29T06:33:52.902Z,101040.60
2019-04-29T06:34:57.290Z,101043.73
2019-04-29T06:36:01.497Z,101043.58
2019-04-29T06:37:05.675Z,101036.05
2019-04-29T06:38:09.934Z,101045.61
2019-04-29T06:39:14.107Z,101039.53
2019-04-29T06:40:19.177Z,101037.64
2019-04-29T06:41:23.350Z,101044.06
2019-04-29T06:42:27.532Z,101041.91
2019-04-29T06:43:31.785Z,101034.68
2019-04-29T06:44:36.035Z,101037.02
2019-04-29T06:45:40.530Z,101032.33
2019-04-29T06:46:45.671Z,101041.38
2019-04-29T06:47:49.955Z,101035.84
2019-04-29T06:48:54.208Z,101030.30
2019-04-29T06:49:58.554Z,101030.30
2019-04-29T06:51:02.963Z,101033.77
2019-04-29T06:52:07.107Z,101036.64
2019-04-29T06:53:11.391Z,101040.33
2019-04-29T06:54:15.635Z,101042.39
2019-04-29T06:55:19.953Z,101047.21
2019-04-29T06:56:24.197Z,101041.42
2019-04-29T06:57:28.369Z,101036.17
2019-04-29T06:58:36.691Z,101041.03
2019-04-29T06:59:38.567Z,101039.42
2019-04-29T07:00:42.738Z,101037.84
2019-04-29T07:01:47.078Z,101042.95
2019-04-29T07:02:51.554Z,101042.73
2019-04-29T07:03:59.861Z,101041.97
2019-04-29T07:05:01.821Z,101039.25
2019-04-29T07:06:07.162Z,101040.44
2019-04-29T07:07:11.404Z,101034.89
2019-04-29T07:08:15.665Z,101039.96
2019-04-29T07:09:20.018Z,101040.03
2019-04-29T07:10:27.109Z,101039.27
2019-04-29T07:11:31.871Z,101043.48
2019-04-29T07:12:36.630Z,101035.15
2019-04-29T07:13:41.792Z,101041.39
2019-04-29T07:14:46.565Z,101038.89
2019-04-29T07:15:51.174Z,101042.02
2019-04-29T07:16:55.721Z,101037.91
2019-04-29T07:18:00.043Z,101046.64
2019-04-29T07:19:05.195Z,101041.94
2019-04-29T07:20:09.754Z,101040.91
2019-04-29T07:21:13.951Z,101044.61
2019-04-29T07:22:20.884Z,101047.47
2019-04-29T07:23:24.633Z,101049.16
2019-04-29T07:24:28.991Z,101041.66
2019-04-29T07:25:33.834Z,101044.55
2019-04-29T07:26:38.208Z,101042.08
2019-04-29T07:27:44.164Z,101051.09
2019-04-29T07:28:53.307Z,101048.09
2019-04-29T07:29:56.697Z,101053.45
2019-04-29T07:31:03.009Z,101043.99
2019-04-29T07:32:09.324Z,101043.80
2019-04-29T07:33:21.828Z,101046.07
2019-04-29T07:34:19.730Z,101046.39
2019-04-29T07:35:24.600Z,101049.77
2019-04-29T07:36:28.811Z,101049.51
2019-04-29T07:37:34.180Z,101045.93
2019-04-29T07:38:41.846Z,101046.80
2019-04-29T07:39:46.952Z,101048.52
2019-04-29T07:40:51.613Z,101054.99
2019-04-29T07:41:56.036Z,101051.70
2019-04-29T07:43:02.845Z,101046.13
2019-04-29T07:44:07.318Z,101051.49
2019-04-29T07:45:14.304Z,101045.95
2019-04-29T07:46:23.264Z,101047.16
2019-04-29T07:47:29.446Z,101044.12
2019-04-29T07:48:36.944Z,101046.39
2019-04-29T07:49:40.807Z,101044.52
2019-04-29T07:50:45.175Z,101043.72
2019-04-29T07:51:49.435Z,101036.75
2019-04-29T07:52:54.145Z,101037.63
2019-04-29T07:53:58.712Z,101035.16
2019-04-29T07:55:03.520Z,101035.29
2019-04-29T07:56:08.208Z,101035.29
2019-04-29T07:57:16.538Z,101036.73
2019-04-29T07:58:22.950Z,101031.47
2019-04-29T07:59:25.721Z,101037.42
2019-04-29T08:00:34.530Z,101030.75
2019-04-29T08:01:38.817Z,101030.83
2019-04-29T08:02:43.362Z,101032.83
2019-04-29T08:03:48.279Z,101027.84
2019-04-29T08:04:52.664Z,101032.91
2019-04-29T08:05:57.569Z,101025.37
2019-04-29T08:07:02.265Z,101030.16
2019-04-29T08:08:06.803Z,101030.50
2019-04-29T08:09:11.229Z,101028.27
2019-04-29T08:10:23.781Z,101026.05
2019-04-29T08:11:21.604Z,101032.50
2019-04-29T08:12:25.865Z,101022.43
2019-04-29T08:13:30.403Z,101025.56
2019-04-29T08:14:34.828Z,101025.02
2019-04-29T08:15:41.449Z,101029.54
2019-04-29T08:16:45.343Z,101033.25
2019-04-29T08:17:51.443Z,101025.74
2019-04-29T08:18:56.052Z,101022.16
2019-04-29T08:20:00.781Z,101028.91
2019-04-29T08:21:06.535Z,101027.86
2019-04-29T08:22:11.051Z,101028.16
2019-04-29T08:23:15.436Z,101022.33
2019-04-29T08:24:20.244Z,101026.28
2019-04-29T08:25:26.043Z,101022.97
2019-04-29T08:26:33.586Z,101017.38
2019-04-29T08:27:40.759Z,101025.81
2019-04-29T08:28:45.010Z,101021.92
2019-04-29T08:29:49.496Z,101015.48
2019-04-29T08:30:53.938Z,101019.70
2019-04-29T08:32:02.188Z,101014.94
2019-04-29T08:33:07.497Z,101010.49
2019-04-29T08:34:11.759Z,101010.50
2019-04-29T08:35:16.773Z,101005.72
2019-04-29T08:36:21.104Z,101016.72
2019-04-29T08:37:25.342Z,101018.41
2019-04-29T08:38:30.240Z,101017.56
2019-04-29T08:39:34.559Z,101017.01
2019-04-29T08:40:38.750Z,101012.52
2019-04-29T08:41:43.583Z,101014.80
2019-04-29T08:42:49.541Z,101010.88
2019-04-29T08:43:56.498Z,101012.56
2019-04-29T08:45:09.367Z,101006.70
2019-04-29T08:46:27.314Z,101009.23
2019-04-29T08:47:36.633Z,101007.83
2019-04-29T08:48:41.259Z,101016.53
2019-04-29T08:49:45.534Z,101006.73
2019-04-29T08:50:50.331Z,101009.86
2019-04-29T08:51:55.437Z,101012.11
2019-04-29T08:52:59.726Z,101007.92
2019-04-29T08:54:04.740Z,101005.95
2019-04-29T08:55:08.951Z,101015.53
2019-04-29T08:56:13.226Z,101007.11
2019-04-29T08:57:17.427Z,101003.45
2019-04-29T08:58:21.824Z,101011.59
2019-04-29T08:59:26.068Z,101006.53
2019-04-29T09:00:30.323Z,101003.44
2019-04-29T09:01:35.808Z,101004.03
2019-04-29T09:02:41.264Z,100999.25
2019-04-29T09:03:46.277Z,101006.27
2019-04-29T09:04:53.858Z,100997.30
2019-04-29T09:06:05.244Z,100996.16
2019-04-29T09:07:12.356Z,100997.55
2019-04-29T09:08:08.217Z,101004.60
2019-04-29T09:09:27.939Z,101002.05
2019-04-29T09:10:19.165Z,100995.03
2019-04-29T09:11:23.413Z,101001.75
2019-04-29T09:12:29.327Z,100997.83
2019-04-29T09:13:33.605Z,100998.92
2019-04-29T09:14:37.814Z,100993.91
2019-04-29T09:15:42.014Z,100989.39
2019-04-29T09:16:47.135Z,100992.75
2019-04-29T09:17:51.312Z,100987.13
2019-04-29T09:18:55.551Z,100991.03
2019-04-29T09:19:59.864Z,100991.04
2019-04-29T09:21:04.938Z,100987.09
2019-04-29T09:22:10.818Z,100976.41
2019-04-29T09:23:22.561Z,100999.18
2019-04-29T09:24:26.870Z,100989.02
2019-04-29T09:25:32.840Z,100989.02
2019-04-29T09:26:44.300Z,100993.77
2019-04-29T09:27:56.226Z,100995.73
2019-04-29T09:29:03.812Z,100994.84
2019-04-29T09:30:07.152Z,100990.06
2019-04-29T09:31:11.632Z,100988.05
2019-04-29T09:32:15.875Z,100988.59
2019-04-29T09:33:20.048Z,100985.72
2019-04-29T09:34:26.151Z,100976.17
2019-04-29T09:35:33.863Z,100980.05
2019-04-29T09:36:36.113Z,100989.01
2019-04-29T09:37:40.988Z,100992.39
2019-04-29T09:38:45.175Z,100988.39
2019-04-29T09:39:49.366Z,100986.43
2019-04-29T09:40:59.649Z,100985.24
2019-04-29T09:42:08.115Z,100992.24
2019-04-29T09:43:32.630Z,100986.91
2019-04-29T09:44:53.127Z,100982.60
2019-04-29T09:46:04.787Z,100978.90
2019-04-29T09:47:10.264Z,100971.23
2019-04-29T09:48:14.544Z,100972.31
2019-04-29T09:49:18.812Z,100968.09
2019-04-29T09:50:23.010Z,100967.76
2019-04-29T09:51:28.217Z,100968.33
2019-04-29T09:52:33.104Z,100968.87
2019-04-29T09:53:37.331Z,100967.73
2019-04-29T09:54:41.491Z,100961.49
2019-04-29T09:55:45.787Z,100963.44
2019-04-29T09:56:49.979Z,100967.95
2019-04-29T09:57:54.250Z,100967.91
2019-04-29T09:59:16.354Z,100963.95
2019-04-29T10:00:24.825Z,100969.33
2019-04-29T10:01:42.555Z,100963.41
2019-04-29T10:02:48.535Z,100965.13
2019-04-29T10:04:06.096Z,100965.97
2019-04-29T10:05:27.994Z,100966.83
2019-04-29T10:06:36.495Z,100963.17
2019-04-29T10:07:40.678Z,100961.79
2019-04-29T10:08:44.902Z,100961.79
2019-04-29T10:09:57.139Z,100965.45
2019-04-29T10:10:56.187Z,100964.02
2019-04-29T10:12:00.783Z,100958.61
2019-04-29T10:13:05.287Z,100966.17
2019-04-29T10:14:09.634Z,100964.46
2019-04-29T10:15:15.672Z,100962.16
2019-04-29T10:16:24.442Z,100964.06
2019-04-29T10:17:30.323Z,100963.50
2019-04-29T10:18:39.149Z,100957.25
2019-04-29T10:19:54.411Z,100963.43
2019-04-29T10:21:00.235Z,100959.73
2019-04-29T10:22:05.066Z,100956.64
2019-04-29T10:23:09.297Z,100959.16
2019-04-29T10:24:14.652Z,100959.97
2019-04-29T10:25:19.393Z,100951.77
2019-04-29T10:26:23.587Z,100946.70
2019-04-29T10:27:27.822Z,100954.59
2019-04-29T10:28:34.803Z,100949.48
2019-04-29T10:29:39.429Z,100943.53
2019-04-29T10:30:44.444Z,100946.63
2019-04-29T10:31:48.756Z,100946.02
2019-04-29T10:32:54.056Z,100943.42
2019-04-29T10:33:58.229Z,100940.27
2019-04-29T10:35:03.681Z,100941.63
2019-04-29T10:36:09.303Z,100939.91
2019-04-29T10:37:13.529Z,100940.14
2019-04-29T10:38:17.870Z,100936.44
2019-04-29T10:39:38.754Z,100939.53
2019-04-29T10:40:47.652Z,100937.80
2019-04-29T10:41:51.982Z,100940.90
2019-04-29T10:43:00.896Z,100935.78
2019-04-29T10:44:23.739Z,100929.80
2019-04-29T10:45:35.597Z,100931.99
2019-04-29T10:46:56.516Z,100929.39
2019-04-29T10:48:17.423Z,100924.55
2019-04-29T10:49:29.204Z,100926.48
2019-04-29T10:50:35.095Z,100932.66
2019-04-29T10:51:39.379Z,100929.52
2019-04-29T10:52:43.802Z,100926.39
2019-04-29T10:53:51.000Z,100931.96
2019-04-29T10:54:55.415Z,100914.61
2019-04-29T10:56:00.878Z,100928.28
2019-04-29T10:57:06.157Z,100922.90
2019-04-29T10:58:10.664Z,100927.97
2019-04-29T10:59:14.907Z,100916.94
2019-04-29T11:00:24.072Z,100915.79
2019-04-29T11:01:35.913Z,100926.21
2019-04-29T11:02:44.768Z,100917.16
2019-04-29T11:03:47.340Z,100918.00
2019-04-29T11:05:11.794Z,100919.72
2019-04-29T11:06:16.647Z,100914.16
2019-04-29T11:07:28.125Z,100916.20
2019-04-29T11:08:42.983Z,100910.81
2019-04-29T11:09:50.836Z,100911.92
2019-04-29T11:11:02.137Z,100913.06
2019-04-29T11:12:00.036Z,100912.75
2019-04-29T11:13:05.209Z,100913.58
2019-04-29T11:14:09.435Z,100899.55
2019-04-29T11:15:15.361Z,100905.59
2019-04-29T11:16:23.083Z,100899.31
2019-04-29T11:17:27.839Z,100900.42
2019-04-29T11:18:33.011Z,100904.22
2019-04-29T11:19:39.886Z,100900.82
2019-04-29T11:20:44.693Z,100895.22
2019-04-29T11:21:48.997Z,100895.75
2019-04-29T11:22:54.927Z,100893.72
2019-04-29T11:24:10.819Z,100886.34
2019-04-29T11:25:33.292Z,100883.47
2019-04-29T11:26:45.009Z,100882.91
2019-04-29T11:27:50.841Z,100878.67
2019-04-29T11:28:56.590Z,100872.13
2019-04-29T11:30:02.835Z,100870.67
2019-04-29T11:31:09.791Z,100876.33
2019-04-29T11:32:15.898Z,100873.23
2019-04-29T11:33:25.088Z,100873.02
2019-04-29T11:34:36.964Z,100868.48
2019-04-29T11:35:45.530Z,100873.28
2019-04-29T11:36:49.799Z,100866.74
2019-04-29T11:37:57.249Z,100861.88
2019-04-29T11:39:00.469Z,100865.50
2019-04-29T11:40:06.736Z,100855.30
2019-04-29T11:41:12.257Z,100857.28
2019-04-29T11:42:17.053Z,100853.87
2019-04-29T11:43:22.073Z,100851.32
2019-04-29T11:44:27.759Z,100852.73
2019-04-29T11:45:33.693Z,100853.03
2019-04-29T11:46:38.408Z,100851.30
2019-04-29T11:47:42.662Z,100850.16
2019-04-29T11:48:46.979Z,100846.70
2019-04-29T11:49:52.861Z,100844.71
2019-04-29T11:50:59.255Z,100843.56
2019-04-29T11:52:09.612Z,100841.41
2019-04-29T11:53:11.406Z,100849.05
2019-04-29T11:54:18.084Z,100844.50
2019-04-29T11:55:22.186Z,100829.00
2019-04-29T11:56:26.507Z,100836.97
2019-04-29T11:57:40.634Z,100835.84
2019-04-29T11:58:49.098Z,100832.13
2019-04-29T12:00:10.457Z,100833.19
2019-04-29T12:01:38.804Z,100829.98
2019-04-29T12:02:45.708Z,100826.30
2019-04-29T12:03:51.363Z,100823.81
2019-04-29T12:04:55.944Z,100824.48
2019-04-29T12:06:01.836Z,100826.34
2019-04-29T12:07:06.224Z,100820.21
2019-04-29T12:08:16.923Z,100826.65
2019-04-29T12:09:17.992Z,100824.34
2019-04-29T12:10:23.136Z,100825.70
2019-04-29T12:11:28.740Z,100820.88
2019-04-29T12:12:33.716Z,100821.03
2019-04-29T12:13:48.738Z,100826.32
2019-04-29T12:14:54.650Z,100810.75
2019-04-29T12:16:00.562Z,100818.92
2019-04-29T12:17:09.494Z,100825.94
2019-04-29T12:18:20.842Z,100817.14
2019-04-29T12:19:26.937Z,100823.89
2019-04-29T12:20:35.510Z,100825.62
2019-04-29T12:21:41.578Z,100819.65
2019-04-29T12:22:48.770Z,100817.08
2019-04-29T12:23:53.251Z,100812.53
2019-04-29T12:24:57.669Z,100816.77
2019-04-29T12:26:03.226Z,100809.12
2019-04-29T12:27:09.826Z,100817.87
2019-04-29T12:28:19.310Z,100815.35
2019-04-29T12:29:20.170Z,100808.55
2019-04-29T12:30:29.945Z,100809.64
2019-04-29T12:31:34.359Z,100806.87
2019-04-29T12:32:43.398Z,100808.86
2019-04-29T12:34:02.902Z,100808.59
2019-04-29T12:35:11.502Z,100811.69
2019-04-29T12:36:16.589Z,100808.86